createdAt,value
2022-10-10T00:01:22.497Z,7.43
2022-10-10T00:03:49.731Z,5.53
2022-10-10T00:06:17.035Z,6.13
2022-10-10T00:08:44.569Z,4.50
2022-10-10T00:11:12.176Z,12.48
2022-10-10T00:13:39.729Z,5.35
2022-10-10T00:16:07.409Z,7.32
2022-10-10T00:18:34.906Z,6.18
2022-10-10T00:21:02.080Z,6.65
2022-10-10T00:23:29.293Z,5.43
2022-10-10T00:25:56.504Z,5.18
2022-10-10T00:28:23.823Z,7.82
2022-10-10T00:30:51.195Z,6.95
2022-10-10T00:33:18.611Z,6.47
2022-10-10T00:35:45.769Z,4.82
2022-10-10T00:38:13.827Z,5.72
2022-10-10T00:40:48.783Z,6.80
2022-10-10T00:43:17.061Z,5.72
2022-10-10T00:45:45.163Z,4.75
2022-10-10T00:48:15.119Z,5.15
2022-10-10T00:50:45.266Z,9.75
2022-10-10T00:53:13.956Z,5.25
2022-10-10T00:55:41.171Z,5.03
2022-10-10T00:58:09.275Z,8.75
2022-10-10T01:00:36.669Z,7.53
2022-10-10T01:03:03.908Z,7.07
2022-10-10T01:05:31.698Z,4.00
2022-10-10T01:07:59.330Z,7.05
2022-10-10T01:10:26.652Z,8.60
2022-10-10T01:12:54.024Z,4.90
2022-10-10T01:15:25.486Z,6.15
2022-10-10T01:18:02.057Z,4.38
2022-10-10T01:20:41.379Z,5.93
2022-10-10T01:23:27.466Z,4.20
2022-10-10T01:25:54.601Z,4.97
2022-10-10T01:28:35.036Z,6.43
2022-10-10T01:31:03.055Z,4.97
2022-10-10T01:33:37.322Z,5.40
2022-10-10T01:36:07.541Z,5.82
2022-10-10T01:38:41.662Z,3.72
2022-10-10T01:41:11.322Z,5.25
2022-10-10T01:43:38.477Z,6.65
2022-10-10T01:46:16.234Z,5.75
2022-10-10T01:48:45.072Z,5.50
2022-10-10T01:51:30.750Z,4.25
2022-10-10T01:53:57.865Z,5.55
2022-10-10T01:56:40.804Z,8.25
2022-10-10T01:59:26.856Z,5.95
2022-10-10T02:02:11.616Z,8.48
2022-10-10T02:04:41.589Z,4.75
2022-10-10T02:07:15.586Z,10.55
2022-10-10T02:09:43.747Z,6.25
2022-10-10T02:12:11.731Z,4.55
2022-10-10T02:14:41.250Z,7.90
2022-10-10T02:17:09.514Z,6.03
2022-10-10T02:19:38.340Z,4.82
2022-10-10T02:22:06.738Z,5.57
2022-10-10T02:24:35.305Z,7.70
2022-10-10T02:27:05.302Z,4.78
2022-10-10T02:29:37.231Z,6.63
2022-10-10T02:32:12.905Z,6.45
2022-10-10T02:34:41.899Z,5.90
2022-10-10T02:37:12.566Z,5.22
2022-10-10T02:39:51.133Z,5.70
2022-10-10T02:42:19.832Z,6.32
2022-10-10T02:44:47.705Z,6.32
2022-10-10T02:47:14.960Z,4.82
2022-10-10T02:49:42.229Z,4.80
2022-10-10T02:52:09.482Z,8.27
2022-10-10T02:54:36.819Z,5.47
2022-10-10T02:57:03.967Z,5.00
2022-10-10T02:59:31.097Z,8.98
2022-10-10T03:01:58.337Z,6.68
2022-10-10T03:04:25.791Z,5.30
2022-10-10T03:06:53.745Z,8.90
2022-10-10T03:09:20.997Z,5.40
2022-10-10T03:11:48.142Z,4.35
2022-10-10T03:14:15.338Z,9.40
2022-10-10T03:16:42.626Z,6.47
2022-10-10T03:19:09.839Z,5.47
2022-10-10T03:21:37.358Z,8.02
2022-10-10T03:24:05.808Z,8.68
2022-10-10T03:26:33.352Z,8.40
2022-10-10T03:29:01.957Z,6.65
2022-10-10T03:31:29.376Z,4.43
2022-10-10T03:33:56.530Z,6.07
2022-10-10T03:36:23.755Z,7.07
2022-10-10T03:38:51.030Z,4.63
2022-10-10T03:41:18.162Z,10.68
2022-10-10T03:43:45.352Z,6.32
2022-10-10T03:46:15.995Z,8.60
2022-10-10T03:48:43.729Z,6.72
2022-10-10T03:51:10.989Z,6.93
2022-10-10T03:53:38.209Z,4.13
2022-10-10T03:56:05.571Z,5.60
2022-10-10T03:58:32.770Z,8.48
2022-10-10T04:01:01.207Z,6.65
2022-10-10T04:03:28.947Z,5.97
2022-10-10T04:05:56.339Z,7.07
2022-10-10T04:08:24.050Z,5.45
2022-10-10T04:10:52.447Z,6.22
2022-10-10T04:13:20.168Z,7.22
2022-10-10T04:15:50.407Z,5.75
2022-10-10T04:18:17.667Z,7.28
2022-10-10T04:20:44.822Z,7.65
2022-10-10T04:23:12.143Z,7.15
2022-10-10T04:25:39.290Z,8.32
2022-10-10T04:28:06.483Z,6.47
2022-10-10T04:30:35.238Z,7.35
2022-10-10T04:33:02.421Z,8.38
2022-10-10T04:35:29.578Z,8.35
2022-10-10T04:37:56.875Z,6.63
2022-10-10T04:40:26.775Z,7.20
2022-10-10T04:42:54.782Z,6.25
2022-10-10T04:45:22.298Z,12.38
2022-10-10T04:47:49.529Z,6.25
2022-10-10T04:50:16.685Z,7.40
2022-10-10T04:52:44.041Z,6.97
2022-10-10T04:55:11.475Z,10.25
2022-10-10T04:57:38.625Z,5.63
2022-10-10T05:00:06.774Z,7.25
2022-10-10T05:02:33.977Z,8.40
2022-10-10T05:05:01.123Z,9.00
2022-10-10T05:07:28.402Z,6.45
2022-10-10T05:09:55.562Z,6.68
2022-10-10T05:12:22.712Z,8.43
2022-10-10T05:14:50.019Z,5.35
2022-10-10T05:17:17.295Z,4.28
2022-10-10T05:19:44.502Z,6.18
2022-10-10T05:22:11.782Z,7.22
2022-10-10T05:24:40.307Z,6.55
2022-10-10T05:27:07.510Z,4.78
2022-10-10T05:29:34.829Z,6.32
2022-10-10T05:32:05.373Z,8.93
2022-10-10T05:34:35.019Z,10.20
2022-10-10T05:37:02.155Z,8.27
2022-10-10T05:39:29.302Z,11.32
2022-10-10T05:41:56.731Z,9.18
2022-10-10T05:44:23.944Z,14.57
2022-10-10T05:46:51.131Z,14.35
2022-10-10T05:49:18.523Z,11.85
2022-10-10T05:51:45.679Z,10.95
2022-10-10T05:54:13.046Z,11.77
2022-10-10T05:56:40.357Z,8.07
2022-10-10T05:59:07.489Z,4.82
2022-10-10T06:01:34.891Z,9.93
2022-10-10T06:04:02.218Z,7.80
2022-10-10T06:06:29.406Z,6.65
2022-10-10T06:08:56.594Z,6.57
2022-10-10T06:11:25.244Z,7.35
2022-10-10T06:13:54.424Z,4.50
2022-10-10T06:16:25.268Z,6.68
2022-10-10T06:18:52.834Z,7.05
2022-10-10T06:21:20.137Z,7.13
2022-10-10T06:23:47.462Z,5.63
2022-10-10T06:51:18.945Z,7.50
2022-10-10T06:53:46.448Z,5.50
2022-10-10T06:56:17.908Z,7.13
2022-10-10T06:58:45.254Z,10.85
2022-10-10T07:01:12.796Z,7.60
2022-10-10T07:03:40.025Z,5.82
2022-10-10T07:06:09.538Z,6.88
2022-10-10T07:08:36.761Z,6.13
2022-10-10T07:11:04.147Z,5.72
2022-10-10T07:13:31.714Z,5.15
2022-10-10T07:15:59.199Z,4.95
2022-10-10T07:18:26.401Z,6.47
2022-10-10T07:20:57.483Z,10.15
2022-10-10T07:23:24.639Z,8.15
2022-10-10T07:25:52.222Z,6.30
2022-10-10T07:28:19.916Z,7.10
2022-10-10T07:30:47.158Z,5.28
2022-10-10T07:33:15.091Z,8.05
2022-10-10T07:35:42.436Z,5.60
2022-10-10T07:38:11.454Z,7.07
2022-10-10T07:40:40.696Z,4.28
2022-10-10T07:43:07.951Z,4.65
2022-10-10T07:45:36.498Z,5.60
2022-10-10T07:48:04.194Z,5.30
2022-10-10T07:50:31.458Z,5.68
2022-10-10T07:52:58.629Z,3.08
2022-10-10T07:55:25.792Z,5.90
2022-10-10T07:57:53.638Z,7.45
2022-10-10T08:00:20.962Z,5.55
2022-10-10T08:02:48.093Z,7.03
2022-10-10T08:05:15.432Z,6.65
2022-10-10T08:07:42.602Z,5.47
2022-10-10T08:10:10.169Z,4.75
2022-10-10T08:12:37.404Z,5.60
2022-10-10T08:15:05.875Z,5.35
2022-10-10T08:17:33.549Z,3.55
2022-10-10T08:20:00.737Z,5.97
2022-10-10T08:22:27.904Z,4.72
2022-10-10T08:24:55.109Z,4.82
2022-10-10T08:27:22.292Z,9.63
2022-10-10T08:29:49.473Z,3.65
2022-10-10T08:32:16.612Z,5.10
2022-10-10T08:34:43.860Z,7.40
2022-10-10T08:37:11.023Z,3.38
2022-10-10T08:39:38.129Z,4.90
2022-10-10T08:42:05.337Z,4.45
2022-10-10T08:44:32.424Z,4.10
2022-10-10T08:47:18.129Z,5.15
2022-10-10T08:49:47.466Z,2.95
2022-10-10T08:52:17.255Z,4.50
2022-10-10T08:54:45.634Z,3.92
2022-10-10T08:57:30.300Z,4.30
2022-10-10T09:00:00.771Z,2.65
2022-10-10T09:02:43.991Z,4.10
2022-10-10T09:05:22.600Z,4.32
2022-10-10T09:08:01.717Z,4.07
2022-10-10T09:10:33.013Z,5.72
2022-10-10T09:13:03.121Z,2.83
2022-10-10T09:15:34.866Z,3.60
2022-10-10T09:18:19.230Z,1.95
2022-10-10T09:20:54.728Z,2.40
2022-10-10T09:23:22.321Z,3.05
2022-10-10T09:25:55.030Z,4.45
2022-10-10T09:28:22.176Z,3.20
2022-10-10T09:30:55.448Z,4.68
2022-10-10T09:33:25.619Z,4.70
2022-10-10T09:35:54.047Z,4.35
2022-10-10T09:38:50.663Z,2.15
2022-10-10T09:41:21.222Z,6.20
2022-10-10T09:43:48.497Z,3.20
2022-10-10T09:46:15.817Z,3.35
2022-10-10T09:48:43.780Z,2.17
2022-10-10T09:51:15.290Z,5.35
2022-10-10T09:53:43.058Z,4.13
2022-10-10T09:56:16.685Z,3.10
2022-10-10T09:58:45.556Z,3.92
2022-10-10T10:01:13.685Z,3.67
2022-10-10T10:03:41.173Z,3.78
2022-10-10T10:06:12.569Z,2.53
2022-10-10T10:08:39.798Z,3.17
2022-10-10T10:11:07.040Z,4.07
2022-10-10T10:13:35.819Z,3.08
2022-10-10T10:16:04.878Z,1.92
2022-10-10T10:18:32.310Z,2.33
2022-10-10T10:21:08.522Z,2.58
2022-10-10T10:23:37.266Z,2.42
2022-10-10T10:26:37.022Z,4.10
2022-10-10T10:29:04.142Z,2.10
2022-10-10T10:31:44.786Z,3.05
2022-10-10T10:34:23.836Z,2.97
2022-10-10T10:36:55.900Z,4.85
2022-10-10T10:39:30.122Z,6.05
2022-10-10T10:41:59.414Z,4.57
2022-10-10T10:44:59.139Z,2.33
2022-10-10T10:47:40.323Z,2.70
2022-10-10T10:50:24.171Z,3.88
2022-10-10T10:52:58.124Z,2.90
2022-10-10T10:55:25.569Z,3.92
2022-10-10T10:58:37.116Z,4.22
2022-10-10T11:01:23.437Z,4.35
2022-10-10T11:05:17.530Z,3.25
2022-10-10T11:07:17.877Z,2.15
2022-10-10T11:09:52.753Z,3.92
2022-10-10T11:12:28.790Z,2.78
2022-10-10T11:15:04.003Z,2.47
2022-10-10T11:17:37.125Z,2.55
2022-10-10T11:20:09.842Z,2.10
2022-10-10T11:22:46.413Z,2.08
2022-10-10T11:25:29.482Z,2.40
2022-10-10T11:28:35.283Z,2.45
2022-10-10T11:31:05.795Z,2.13
2022-10-10T11:33:57.420Z,2.92
2022-10-10T11:36:26.862Z,2.50
2022-10-10T11:38:58.205Z,2.78
2022-10-10T11:41:25.698Z,2.47
2022-10-10T11:44:02.265Z,4.30
2022-10-10T11:46:37.089Z,2.05
2022-10-10T11:49:10.111Z,2.63
2022-10-10T11:51:49.544Z,2.78
2022-10-10T11:54:24.229Z,3.13
2022-10-10T11:56:53.349Z,2.55
2022-10-10T11:59:29.536Z,3.47
2022-10-10T12:04:35.674Z,2.42
2022-10-10T12:07:09.397Z,4.05
2022-10-10T12:09:41.780Z,3.50
2022-10-10T12:12:15.842Z,2.13
2022-10-10T12:14:45.832Z,3.85
2022-10-10T12:17:25.545Z,3.60
2022-10-10T12:19:52.852Z,3.10
2022-10-10T12:22:28.571Z,4.30
2022-10-10T12:25:11.154Z,3.05
2022-10-10T12:28:01.746Z,4.07
2022-10-10T12:30:29.205Z,2.22
2022-10-10T12:32:56.843Z,2.78
2022-10-10T12:35:31.896Z,3.25
2022-10-10T12:38:28.509Z,2.25
2022-10-10T12:40:58.795Z,3.60
2022-10-10T12:43:36.819Z,6.63
2022-10-10T12:46:21.462Z,2.67
2022-10-10T12:48:57.943Z,2.78
2022-10-10T12:51:25.543Z,1.67
2022-10-10T12:53:56.306Z,2.15
2022-10-10T12:56:38.068Z,3.50
2022-10-10T12:59:06.856Z,3.00
2022-10-10T13:01:45.507Z,3.78
2022-10-10T13:04:15.854Z,2.35
2022-10-10T13:06:45.296Z,2.43
2022-10-10T13:09:17.570Z,2.30
2022-10-10T13:11:55.121Z,2.35
2022-10-10T13:14:22.638Z,2.22
2022-10-10T13:16:49.837Z,4.03
2022-10-10T13:19:18.670Z,2.63
2022-10-10T13:21:45.892Z,2.10
2022-10-10T13:24:17.092Z,1.77
2022-10-10T13:29:17.445Z,1.67
2022-10-10T13:42:37.329Z,1.58
2022-10-10T13:45:30.061Z,3.63
2022-10-10T13:48:10.976Z,4.05
2022-10-10T13:50:43.957Z,1.60
2022-10-10T13:53:26.060Z,3.53
2022-10-10T13:55:59.496Z,3.78
2022-10-10T13:58:27.521Z,2.55
2022-10-10T14:00:55.819Z,2.47
2022-10-10T14:03:23.464Z,3.38
2022-10-10T14:05:50.843Z,2.17
2022-10-10T14:08:20.102Z,3.67
2022-10-10T14:10:58.032Z,3.25
2022-10-10T14:13:25.639Z,2.67
2022-10-10T14:15:52.866Z,5.28
2022-10-10T14:18:21.948Z,2.45
2022-10-10T14:20:49.887Z,3.70
2022-10-10T14:23:17.345Z,2.95
2022-10-10T14:25:46.689Z,4.32
2022-10-10T14:28:18.342Z,2.05
2022-10-10T14:30:45.793Z,5.15
2022-10-10T14:33:13.612Z,2.00
2022-10-10T14:35:41.289Z,3.65
2022-10-10T14:38:08.716Z,2.88
2022-10-10T14:40:35.913Z,2.53
2022-10-10T14:43:03.037Z,2.83
2022-10-10T14:45:30.221Z,2.05
2022-10-10T14:47:57.422Z,3.15
2022-10-10T14:50:26.902Z,2.95
2022-10-10T14:52:57.032Z,3.60
2022-10-10T14:55:24.297Z,2.65
2022-10-10T14:57:51.445Z,2.38
2022-10-10T15:00:20.003Z,3.38
2022-10-10T15:02:47.324Z,2.42
2022-10-10T15:05:15.033Z,3.63
2022-10-10T15:07:42.421Z,3.88
2022-10-10T15:10:32.582Z,2.53
2022-10-10T15:12:57.668Z,2.45
2022-10-10T15:15:24.861Z,3.70
2022-10-10T15:17:51.977Z,2.88
2022-10-10T15:20:20.228Z,2.75
2022-10-10T15:22:47.483Z,4.20
2022-10-10T15:25:14.709Z,3.67
2022-10-10T15:27:41.921Z,3.08
2022-10-10T15:30:09.439Z,2.17
2022-10-10T15:32:40.147Z,5.22
2022-10-10T15:35:07.549Z,3.38
2022-10-10T15:37:34.966Z,3.60
2022-10-10T15:40:02.074Z,3.20
2022-10-10T15:42:29.365Z,5.25
2022-10-10T15:44:56.658Z,4.47
2022-10-10T15:47:23.889Z,1.80
2022-10-10T15:49:51.096Z,1.80
2022-10-10T15:52:19.964Z,2.83
2022-10-10T15:54:48.864Z,3.25
2022-10-10T15:57:18.679Z,3.88
2022-10-10T15:59:46.412Z,3.78
2022-10-10T16:02:13.728Z,4.10
2022-10-10T16:04:40.836Z,2.92
2022-10-10T16:09:55.610Z,6.95
2022-10-10T16:12:22.776Z,9.18
2022-10-10T16:14:49.962Z,3.25
2022-10-10T16:17:22.242Z,3.30
2022-10-10T16:19:50.614Z,8.73
2022-10-10T16:22:17.767Z,4.53
2022-10-10T16:24:58.294Z,3.08
2022-10-10T16:27:32.344Z,8.32
2022-10-10T16:29:59.458Z,4.40
2022-10-10T16:32:26.568Z,3.03
2022-10-10T16:34:53.732Z,5.05
2022-10-10T16:37:20.921Z,3.75
2022-10-10T16:39:48.021Z,5.03
2022-10-10T16:42:15.281Z,8.48
2022-10-10T16:44:42.964Z,4.43
2022-10-10T16:47:10.131Z,7.00
2022-10-10T16:49:37.410Z,5.20
2022-10-10T16:52:04.614Z,8.88
2022-10-10T16:54:31.718Z,4.68
2022-10-10T16:56:58.901Z,6.65
2022-10-10T16:59:26.147Z,6.10
2022-10-10T17:01:53.273Z,5.28
2022-10-10T17:04:20.515Z,6.85
2022-10-10T17:06:47.627Z,5.35
2022-10-10T17:09:17.002Z,6.25
2022-10-10T17:11:48.105Z,4.40
2022-10-10T17:14:18.409Z,6.63
2022-10-10T17:17:10.471Z,3.65
2022-10-10T17:19:33.130Z,3.97
2022-10-10T17:22:00.603Z,5.13
2022-10-10T17:24:27.818Z,5.95
2022-10-10T17:26:54.953Z,4.35
2022-10-10T17:29:23.694Z,5.32
2022-10-10T17:31:50.893Z,4.47
2022-10-10T17:34:18.009Z,4.03
2022-10-10T17:36:45.296Z,5.40
2022-10-10T17:39:12.459Z,4.50
2022-10-10T17:41:39.746Z,4.50
2022-10-10T17:44:10.803Z,5.28
2022-10-10T17:46:41.618Z,3.78
2022-10-10T17:49:10.410Z,6.95
2022-10-10T17:51:39.216Z,5.22
2022-10-10T17:54:06.596Z,4.63
2022-10-10T17:56:33.999Z,4.57
2022-10-10T17:59:01.909Z,4.72
2022-10-10T18:01:30.657Z,3.10
2022-10-10T18:03:58.273Z,3.13
2022-10-10T18:06:25.449Z,5.03
2022-10-10T18:08:53.696Z,3.83
2022-10-10T18:11:22.872Z,6.88
2022-10-10T18:13:50.265Z,5.18
2022-10-10T18:16:19.407Z,4.30
2022-10-10T18:18:51.044Z,4.70
2022-10-10T18:21:19.740Z,4.57
2022-10-10T18:23:47.004Z,3.85
2022-10-10T18:26:16.990Z,5.43
2022-10-10T18:28:44.711Z,3.75
2022-10-10T18:31:19.925Z,4.00
2022-10-10T18:33:47.685Z,3.20
2022-10-10T18:36:15.828Z,3.45
2022-10-10T18:38:43.120Z,3.35
2022-10-10T18:41:12.176Z,5.28
2022-10-10T18:43:39.826Z,3.53
2022-10-10T18:46:08.038Z,3.72
2022-10-10T18:48:36.073Z,4.40
2022-10-10T18:51:10.418Z,3.47
2022-10-10T18:53:42.147Z,5.28
2022-10-10T18:56:10.135Z,3.30
2022-10-10T18:58:37.629Z,5.93
2022-10-10T19:01:09.405Z,5.82
2022-10-10T19:03:37.221Z,4.00
2022-10-10T19:06:05.349Z,4.57
2022-10-10T19:08:32.506Z,2.95
2022-10-10T19:10:59.918Z,3.92
2022-10-10T19:13:27.354Z,4.43
2022-10-10T19:15:54.631Z,4.05
2022-10-10T19:18:24.136Z,4.10
2022-10-10T19:20:51.264Z,3.92
2022-10-10T19:23:19.672Z,4.60
2022-10-10T19:25:46.849Z,3.35
2022-10-10T19:28:14.017Z,4.03
2022-10-10T19:30:42.554Z,3.25
2022-10-10T19:33:09.904Z,2.90
2022-10-10T19:35:41.827Z,5.97
2022-10-10T19:38:10.325Z,4.20
2022-10-10T19:40:44.223Z,2.60
2022-10-10T19:43:11.549Z,3.03
2022-10-10T19:45:42.053Z,3.72
2022-10-10T19:48:09.218Z,3.63
2022-10-10T19:50:40.094Z,3.22
2022-10-10T19:53:07.669Z,4.18
2022-10-10T19:55:34.851Z,5.25
2022-10-10T19:58:02.983Z,4.47
2022-10-10T20:00:30.350Z,5.13
2022-10-10T20:02:57.493Z,3.35
2022-10-10T20:05:24.738Z,3.58
2022-10-10T20:07:52.183Z,4.97
2022-10-10T20:10:19.743Z,2.85
2022-10-10T20:12:47.431Z,4.03
2022-10-10T20:15:14.813Z,3.67
2022-10-10T20:17:42.134Z,4.82
2022-10-10T20:20:09.501Z,3.55
2022-10-10T20:22:36.601Z,4.45
2022-10-10T20:25:04.691Z,3.45
2022-10-10T20:27:31.894Z,3.60
2022-10-10T20:29:59.510Z,6.88
2022-10-10T20:32:26.619Z,3.58
2022-10-10T20:34:53.794Z,3.40
2022-10-10T20:37:20.968Z,3.95
2022-10-10T20:39:48.089Z,2.58
2022-10-10T20:42:15.344Z,4.78
2022-10-10T20:44:42.446Z,3.83
2022-10-10T20:47:09.580Z,4.03
2022-10-10T20:49:36.881Z,5.00
2022-10-10T20:52:04.034Z,4.72
2022-10-10T20:54:31.152Z,4.43
2022-10-10T20:56:58.423Z,3.10
2022-10-10T20:59:25.741Z,3.60
2022-10-10T21:01:52.917Z,3.95
2022-10-10T21:04:20.277Z,3.72
2022-10-10T21:06:48.793Z,3.63
2022-10-10T21:09:16.374Z,3.47
2022-10-10T21:11:46.510Z,4.13
2022-10-10T21:14:15.959Z,2.97
2022-10-10T21:16:43.147Z,6.43
2022-10-10T21:19:11.455Z,4.53
2022-10-10T21:21:38.875Z,4.05
2022-10-10T21:24:07.299Z,3.00
2022-10-10T21:26:34.762Z,3.20
2022-10-10T21:29:01.944Z,6.07
2022-10-10T21:31:30.826Z,2.40
2022-10-10T21:33:58.095Z,2.95
2022-10-10T21:36:26.643Z,4.00
2022-10-10T21:38:54.697Z,4.38
2022-10-10T21:41:22.540Z,3.30
2022-10-10T21:43:54.817Z,4.35
2022-10-10T21:46:23.805Z,3.70
2022-10-10T21:48:52.244Z,3.08
2022-10-10T21:51:19.573Z,4.05
2022-10-10T21:53:46.874Z,3.15
2022-10-10T21:56:14.790Z,4.35
2022-10-10T21:58:42.625Z,3.00
2022-10-10T22:01:09.994Z,4.78
2022-10-10T22:03:37.257Z,6.10
2022-10-10T22:06:05.934Z,3.63
2022-10-10T22:08:33.798Z,4.80
2022-10-10T22:11:05.331Z,5.45
2022-10-10T22:13:33.037Z,6.10
2022-10-10T22:16:00.688Z,4.13
2022-10-10T22:18:27.946Z,5.40
2022-10-10T22:20:55.105Z,4.50
2022-10-10T22:23:22.366Z,5.25
2022-10-10T22:25:50.365Z,4.88
2022-10-10T22:28:17.768Z,2.90
2022-10-10T22:30:45.682Z,5.20
2022-10-10T22:33:13.052Z,6.47
2022-10-10T22:35:40.214Z,6.93
2022-10-10T22:38:07.484Z,5.68
2022-10-10T22:40:34.677Z,5.30
2022-10-10T22:43:02.052Z,3.95
2022-10-10T22:45:29.437Z,4.88
2022-10-10T22:47:56.628Z,4.63
2022-10-10T22:50:23.775Z,4.65
2022-10-10T22:52:51.017Z,6.07
2022-10-10T22:55:18.867Z,5.85
2022-10-10T22:57:46.302Z,3.70
2022-10-10T23:00:13.873Z,7.38
2022-10-10T23:02:41.022Z,6.43
2022-10-10T23:05:08.463Z,5.10
2022-10-10T23:07:35.806Z,5.22
2022-10-10T23:10:02.999Z,5.10
2022-10-10T23:12:30.109Z,5.57
2022-10-10T23:14:57.297Z,5.18
2022-10-10T23:17:24.427Z,4.85
2022-10-10T23:19:51.565Z,5.97
2022-10-10T23:22:18.732Z,6.78
2022-10-10T23:24:47.019Z,6.20
2022-10-10T23:27:14.147Z,6.75
2022-10-10T23:29:41.324Z,7.25
2022-10-10T23:32:08.442Z,7.20
2022-10-10T23:34:35.615Z,8.10
2022-10-10T23:37:02.989Z,6.90
2022-10-10T23:39:30.124Z,6.53
2022-10-10T23:41:57.295Z,6.43
2022-10-10T23:44:24.588Z,9.25
2022-10-10T23:46:51.756Z,11.23
2022-10-10T23:49:18.857Z,8.43
2022-10-10T23:51:46.129Z,11.85
2022-10-10T23:54:13.244Z,6.85
2022-10-10T23:56:41.111Z,7.38
2022-10-10T23:59:08.371Z,9.30
